Blue Oak Ranch Reserve, California Weather observations

Data are for 10 minute period ending at time listed.
 Day   Time   Solar   Ave.   Ave.  Ave.  Vector  Max.   Baro.   Total    
  of    of     Rad.   Air    Rel.  Wind   Wind   Wind  Press.  Precip.   
Year   Day            Temp.  Hum.  Speed  Dir.   Gust                    
2016   (PST)  Kw/m2    F      %     mph   deg.    mph    mb.     in.     
-------------------------------------------------------------------------
 144    5:20   0.02   41.8    94    2.8   343     4.5   946.8    0.00 
 144    5:30   0.03   41.3    94    1.1   293     2.4   946.9    0.00 
 144    5:40   0.04   41.5    94    2.2   293     3.0   947.0    0.00 
 144    5:50   0.06   42.1    94    3.3   292     4.5   947.0    0.00 
 144    6:00   0.07   42.7    94    3.0   296     4.2   947.1    0.00 
 144    6:10   0.10   44.1    94    1.8   308     4.1   947.1    0.00 
 144    6:20   0.16   46.1    90    3.3   302     5.3   947.1    0.00 
 144    6:30   0.21   47.9    86    3.5   287     5.5   947.2    0.00 
 144    6:40   0.15   48.6    84    4.1   289     7.0   947.3    0.00 
 144    6:50   0.26   48.4    85    5.0   289     8.6   947.1    0.00 
 144    7:00   0.40   50.3    79    4.6   287     8.3   947.0    0.00 
 144    7:10   0.32   51.7    76    5.5   283     8.1   946.9    0.00 
 144    7:20   0.27   50.3    79    6.1   295     8.7   946.9    0.00 
 144    7:30   0.31   50.1    79    5.4   297     7.2   946.9    0.00 
 144    7:40   0.33   51.2    77    4.2   281     6.4   946.8    0.00 
 144    7:50   0.25   50.6    77    4.4   304     6.9   946.8    0.00 
 144    8:00   0.40   50.8    78    3.2   285     6.0   946.8    0.00 
 144    8:10   0.55   53.0    72    3.5   277     6.0   946.6    0.00 
 144    8:20   0.56   55.3    68    3.2   233     6.9   946.5    0.00 
 144    8:30   0.43   55.1    68    5.4   235    10.6   946.4    0.00 
 144    8:40   0.28   53.9    70    4.9   253     9.1   946.4    0.00 
 144    8:50   0.51   53.4    71    4.7   228     8.0   946.4    0.00 
 144    9:00   0.53   54.3    71    4.8   234     8.4   946.3    0.00 
 144    9:10   0.53   55.2    69    5.8   228     9.4   946.2    0.00 
 144    9:20   0.57   54.2    71    5.5   235     9.6   946.2    0.00 
 144    9:30   0.46   55.9    68    5.3   248     9.9   946.2    0.00 
 144    9:40   0.86   57.0    67    4.5   240     8.6   946.2    0.00 
 144    9:50   0.90   58.5    64    5.5   249    11.2   946.2    0.00 
 144   10:00   1.01   58.8    63    6.6   227    11.5   946.3    0.00 
 144   10:10   0.80   59.2    63    5.9   258    11.2   946.3    0.00 
 144   10:20   0.72   58.6    64    5.9   261    10.5   946.4    0.00 
 144   10:30   0.68   58.2    64    6.8   270    12.3   946.3    0.00 
 144   10:40   0.92   58.3    64    6.8   278    11.6   946.3    0.00 
 144   10:50   0.93   60.4    60    5.4   285    11.8   946.3    0.00 
 144   11:00   0.50   58.6    60    6.8   303    11.9   946.3    0.00 
 144   11:10   0.76   58.1    61    5.8   296    12.0   946.3    0.00 
 144   11:20   0.94   59.8    58    6.0   294    11.7   946.2    0.00 
 144   11:30   0.92   60.0    58    8.0   294    13.2   946.2    0.00 
 144   11:40   0.84   59.5    59    6.9   295    12.6   946.2    0.00 
 144   11:50   0.93   59.9    58    8.2   302    14.1   946.1    0.00 
 144   12:00   0.90   59.8    57    8.1   299    13.1   946.0    0.00 
 144   12:10   0.93   60.3    57    7.0   287    14.0   945.9    0.00 
 144   12:20   0.94   60.2    57    7.5   293    12.8   945.7    0.00 
 144   12:30   0.94   60.7    57    6.5   292    12.9   945.7    0.00 
 144   12:40   0.94   61.7    56    8.7   280    13.7   945.7    0.00 
 144   12:50   0.91   61.9    55    8.4   288    15.8   945.6    0.00 
 144   13:00   0.94   62.3    53    9.3   287    15.2   945.6    0.00 
 144   13:10   0.77   63.1    53    8.0   282    14.2   945.6    0.00 
 144   13:20   0.90   62.0    54    8.6   295    14.8   945.7    0.00 
 144   13:30   0.92   62.1    55   10.6   294    16.4   945.7    0.00 
 144   13:40   0.71   61.6    56    8.6   294    15.3   945.7    0.00 
 144   13:50   0.81   63.0    55    6.8   278    14.2   945.6    0.00 
 144   14:00   0.84   63.4    54    8.5   275    13.2   945.7    0.00 
 144   14:10   0.79   62.1    55    7.7   298    13.4   945.7    0.00 
 144   14:20   0.73   62.9    53    7.6   286    13.7   945.7    0.00 
 144   14:30   0.90   63.4    53    9.5   288    19.1   945.6    0.00 
 144   14:40   0.70   63.2    53    9.6   285    15.0   945.6    0.00 
 144   14:50   0.49   61.8    55    8.7   288    14.5   945.6    0.00 
 144   15:00   0.75   62.7    53    5.8   293    15.9   945.5    0.00 
 144   15:10   0.58   63.0    53    8.4   285    16.8   945.3    0.00 
 144   15:20   0.69   63.1    52    8.7   288    13.2   945.3    0.00 
 144   15:30   0.66   62.7    51    8.8   293    15.1   945.2    0.00 
 144   15:40   0.63   62.8    51    8.5   299    13.7   945.2    0.00 
 144   15:50   0.60   61.6    52    8.4   320    13.5   945.1    0.00 
 144   16:00   0.58   61.8    53    7.9   310    13.1   945.0    0.00 
 144   16:10   0.53   62.3    52    8.1   305    14.0   944.9    0.00 
 144   16:20   0.55   61.5    53    8.5   306    14.0   944.9    0.00 
 144   16:30   0.56   62.0    52    7.9   307    13.4   944.9    0.00 
 144   16:40   0.44   61.1    54    9.2   305    14.8   944.8    0.00 
 144   16:50   0.23   59.8    57    8.9   293    14.2   944.8    0.00 
 144   17:00   0.25   59.6    59    6.9   291    13.1   944.6    0.00 
 144   17:10   0.20   58.7    60    7.9   306    12.4   944.6    0.00 
 144   17:20   0.16   58.3    61    7.0   296    11.7   944.5    0.00 
 144   17:30   0.13   58.0    62    6.4   303    12.9   944.4    0.00 
 144   17:40   0.12   57.8    61    6.8   284    11.5   944.4    0.00 
 144   17:50   0.10   57.4    63    7.6   289    11.5   944.3    0.00 
 144   18:00   0.10   57.0    64    6.9   288    10.9   944.3    0.00 
 144   18:10   0.10   57.0    62    6.0   290     9.3   944.3    0.00 
 144   18:20   0.12   57.2    64    5.3   284     9.0   944.3    0.00 
 144   18:30   0.14   58.3    63    6.1   285     9.3   944.2    0.00 
 144   18:40   0.09   58.2    65    5.4   275    10.5   944.3    0.00 
 144   18:50   0.05   56.6    68    5.3   287     9.3   944.4    0.00 
 144   19:00   0.03   55.3    73    4.9   285     8.3   944.4    0.00 
 144   19:10   0.02   54.4    75    5.3   297     9.3   944.5    0.00 
 144   19:20   0.01   53.6    76    3.7   298     6.5   944.5    0.00 
 144   19:30   0.01   52.9    78    2.2   326     4.1   944.6    0.00 
 144   19:40   0.00   52.6    79    2.1   301     4.1   944.6    0.00 
 144   19:50   0.00   52.2    81    3.7   299     6.5   944.7    0.00 
 144   20:00   0.00   52.0    82    2.3   329     4.1   944.8    0.00 
 144   20:10   0.00   51.8    83    3.0   298     5.3   944.8    0.00 
 144   20:20   0.00   51.4    84    2.8   283     4.3   944.9    0.00 
 144   20:30   0.00   50.9    86    3.1   292     6.2   945.0    0.00 
 144   20:40   0.00   51.0    87    1.9   312     5.8   945.1    0.00 
 144   20:50   0.00   51.3    87    2.3   285     4.5   945.2    0.00 
 144   21:00   0.00   51.6    88    3.7   273     6.0   945.3    0.00 
 144   21:10   0.00   51.7    88    3.9   279     5.9   945.4    0.00 
 144   21:20   0.00   51.6    88    3.6   293     7.5   945.4    0.00 
 144   21:30   0.00   51.3    88    3.8   297     6.1   945.5    0.00 
 144   21:40   0.00   51.1    87    4.1   307     7.6   945.5    0.00 
 144   21:50   0.00   50.7    88    4.7   307     8.1   945.5    0.00 
 144   22:00   0.00   50.5    89    3.3   292     6.4   945.4    0.00 
 144   22:10   0.00   50.7    90    2.1   284     4.8   945.4    0.00 
 144   22:20   0.00   50.5    89    3.7   308     6.1   945.4    0.00 
 144   22:30   0.00   50.4    89    4.2   293     7.6   945.4    0.00 
 144   22:40   0.00   50.3    89    4.5   295     7.0   945.3    0.00 
 144   22:50   0.00   50.1    89    4.4   314     7.5   945.3    0.00 
 144   23:00   0.00   49.9    90    4.2   322     7.0   945.3    0.00 
 144   23:10   0.00   49.8    91    3.7   325     6.6   945.4    0.00 
 144   23:20   0.00   49.8    91    3.8   309     8.0   945.4    0.00 
 144   23:30   0.00   49.7    91    4.6   309     8.6   945.4    0.00 
 144   23:40   0.00   49.7    90    4.5   320     8.0   945.5    0.00 
 144   23:50   0.00   49.6    90    4.1   304     9.0   945.4    0.00 
 145    0:00   0.00   49.6    90    3.7   301     6.4   945.4    0.00 
 145    0:10   0.00   49.5    90    4.6   296     7.1   945.4    0.00 
 145    0:20   0.00   49.4    90    3.8   287     6.8   945.4    0.00 
 145    0:30   0.00   49.4    90    3.9   302     5.9   945.3    0.00 
 145    0:40   0.00   49.3    89    4.1   321     6.5   945.2    0.00 
 145    0:50   0.00   49.3    89    3.4   312     5.8   945.2    0.00 
 145    1:00   0.00   49.3    89    3.6   324     5.6   945.1    0.00 
 145    1:10   0.00   49.4    88    3.4   298     5.8   945.0    0.00 
 145    1:20   0.00   49.3    89    3.7   314     5.9   944.9    0.00 
 145    1:30   0.00   49.2    90    3.5   302     6.6   944.9    0.00 
 145    1:40   0.00   49.2    91    3.0   277     4.8   944.9    0.00 
 145    1:50   0.00   49.0    90    2.9   301     5.0   944.9    0.00 
 145    2:00   0.00   49.0    90    2.4   301     4.7   944.8    0.00 
 145    2:10   0.00   49.1    90    2.2   315     5.9   944.8    0.00 
 145    2:20   0.00   49.1    90    3.2   289     5.6   944.8    0.00 
 145    2:30   0.00   49.1    91    3.2   279     5.1   944.8    0.00 
 145    2:40   0.00   49.1    91    3.5   286     5.5   944.9    0.00 
 145    2:50   0.00   49.0    91    4.6   276     8.1   944.9    0.00 
 145    3:00   0.00   48.7    91    3.7   285     7.5   944.9    0.00 
 145    3:10   0.00   48.5    91    3.7   292     6.3   944.9    0.00 
 145    3:20   0.00   48.3    91    3.6   294     6.0   944.9    0.00 
 145    3:30   0.00   48.3    91    3.1   310     5.5   944.8    0.00 
 145    3:40   0.00   48.2    91    3.1   302     4.8   944.8    0.00 
 145    3:50   0.00   48.2    91    1.6   307     3.0   944.8    0.00 
 145    4:00   0.00   48.3    91    2.8   280     4.5   944.8    0.00 
 145    4:10   0.00   48.3    91    2.4   276     5.6   944.8    0.00 
 145    4:20   0.00   48.3    92    3.9   293     6.7   944.8    0.00 
 145    4:30   0.00   48.3    92    3.9   319     7.4   944.9    0.00 
 145    4:40   0.00   48.3    92    3.7   298     7.2   945.0    0.00 
 145    4:50   0.00   48.3    92    2.9   293     4.9   945.0    0.00 
 145    5:00   0.00   48.5    92    3.1   284     5.4   945.1    0.00 
 145    5:10   0.01   48.5    92    2.5   274     4.2   945.2    0.00 

Return to Blue Oak Ranch Reserve graphs page.


Western Regional Climate Center,wrcc@dri.edu